Adamsville, Pennsylvania
Current Conditions -  °F | °C
As of 8:53 PM on Saturday 22 Nov 2014 (Local Time) from KGKJ Reporting Station
Light Rain Light Rain  
Wind Chill: 37°   Ceiling: 3600
Heat Index: 42°   Visibility: 10mi
Dew Point: 32°   Wind: 8mph
Humidity: 67%   Direction: 190°S
Pressure: 30.05"   Gusts: NA
Location:  41.51°N, 80.37°W
Report Text: KGKJ 230153Z AUTO 19007KT 10SM -RA OVC036 06/00 A3005 RMK AO2 RAB0058E08B34 SLP188 P0000 T00560000 TSNO
Loading
Personal Weather Stations






























Interactive Weather Map New forecast layout! Learn more

10-Day Weather Forecast

Advertisements
Track Severe Weather on mobile